KNMI Weerbulletins

Hier vind u de KMNI verwachtingen en de waarnemingen

Bron: KNMI website
Laatste update op 17-01-2021 om 16:01
ZCZC
FBNL50 EHDB 171415
WEERBULLETIN VOOR DE LUCHTVAART
GELDIG 171500/172100 UTC
SITUATIE: EEN OCCLUSIE LANGS DE NOORDOOSTGRENS BEWEEGT LANGZAAM
OOSTWAARTS EN VERLAAT OM 18 UTC HET UITERSTE NOORDOOSTEN. TEN OOSTEN
VAN DE OCCLUSIE IS DE STROMING ZUID TOT ZUIDWEST EN DE AANGEVOERDE
LUCHT STABIEL VAN OPBOUW. TEN WESTEN VAN DE OCCLUSIE VOERT EEN
NOORDWESTELIJKE STROMING MARITIEM POLAIRE LUCHT AAN, DIE ONSTABIEL
VAN OPBOUW IS TOT BOVEN FL100.
SIGNIFICANT WEER: ENKELE GEISOLEERDE LICHTE REGENBUIEN, IN HET
UITERSTE OOSTEN AANHOUDENDE KANS OP NEVEL. NABIJ DE OCCLUSIE LOKAAL
KANS OP MIST EN AF EN TOE LICHTE MOTREGEN. IN BEWOLKING KANS OP
MATIGE IJSAANZETTING BOVEN 2500 VT.
WIND: WEST TOT NOORDWEST 7-12 KN, AAN DE KUST NOORDWEST 13-18 KN.
NABIJ DE OCCLUSIE ZUID TOT ZUIDWEST 2-7 KN.
BEWOLKING: BKN, LOKAAL SCT SC/CU 1500-3000 VT, TOPPEN 5000-6000 VT.
BIJ EEN BUI FEW CB 1500-2000 VT, TOPPEN BOVEN FL100. NABIJ DE
OCCLUSIE OP UITGEBREIDE SCHAAL OVC ST/NS BENEDEN 500 VT, TOPPEN TOT
7000 VT.
ZICHT: MEER DAN 10 KM, IN EEN BUI MOGELIJK 5-8 KM. IN NEVEL 1500-5000
M. NABIJ DE OCCLUSIE 1500-3000 M, LOKAAL MINDER DAN 1500 M.
NULGRADEN NIVEAU: 2500-3000 VT.
HOOGTEWINDEN EN TEMPERATUREN:
       15 UTC:    21 UTC:
0500VT 310/15-20 +05 300/15-20 +05
1500VT 320/20-25 +03 310/15-20 +03
3000VT 330/20-25 -01 320/15-20 -01
FL 050 340/15-25 -06 310/10-20 -06
FL 100 320/15-25 -13 320/20-25 -15
VOORUITZICHTEN VOOR MORGEN: EEN WESTELIJKE STROMING VOERT MARITIEM
POLAIRE LUCHT AAN. DE HELE DAG IS ER KANS OP ST/SC ROND 1000 VT, EN
OOK OP LICHTE REGEN OF EEN LOKALE REGENBUI.
DAGLICHTPERIODE: 07.24 TOT 16.17 UTC.=
NNNN
Bron: KNMI website
Laatste update op 17-01-2021 om 16:01
ZCZC
FC150900 EHGR RRA GILZE-RIJEN/GILZE-RIJEN   NLD   14 m.
TAF EHGR 150923Z 1510/1522 01007KT 9999 OVC035
    BECMG 1516/1519 VRB02KT=
ZCZC
FC150900 EHWO AAA WOENSDRECHT/WOENSDRECHT   NLD   19 m.
TAF AMD EHWO 151425Z 1514/1522 CNL=
ZCZC
FT171100 EHLE     LELYSTAD/LELYSTAD   NLD   -3 m.
TAF EHLE 171118Z 1712/1818 30010KT 9999 SCT020
    PROB30 TEMPO 1712/1801 7000 -SHRA FEW015TCU BKN020
    BECMG 1720/1723 26007KT
    BECMG 1801/1804 23008KT
    TEMPO 1803/1811 BKN012
    BECMG 1809/1812 25017KT
    TEMPO 1814/1818 7000 -RA BKN012
    BECMG 1815/1818 23011KT=
ZCZC
FT171100 EHAM     AMSTERDAM/SCHIPHOL   NLD   -3 m.
TAF EHAM 171117Z 1712/1818 30010KT 9999 SCT020
    PROB30 TEMPO 1712/1801 7000 -SHRA FEW015TCU BKN020
    BECMG 1720/1723 26007KT
    BECMG 1801/1804 23008KT
    PROB30 TEMPO 1803/1808 BKN012
    BECMG 1809/1812 25017KT
    TEMPO 1814/1818 7000 -RA BKN012
    BECMG 1815/1818 23011KT=
ZCZC
FT171100 EHRD     ROTTERDAM/THE HAGUE AIRPORT   NLD   -5 m.
TAF EHRD 171117Z 1712/1818 30010KT 9999 SCT020
    PROB30 TEMPO 1712/1801 7000 -SHRA FEW015TCU BKN020
    BECMG 1720/1723 26007KT
    BECMG 1801/1804 23008KT
    PROB30 TEMPO 1803/1808 BKN012
    BECMG 1809/1812 25017KT
    TEMPO 1814/1818 7000 -RA BKN012
    BECMG 1815/1818 23011KT=
ZCZC
FT171100 EHGG CCB GRONINGEN/EELDE   NLD   5 m.
TAF COR EHGG 171130Z 1712/1818 18005KT 3000 BR BKN004
    BECMG 1712/1715 8000 NSW BKN025
    PROB30 TEMPO 1712/1724 7000 -SHRA SCT020CB
    PROB40 1715/1809 4000 BR
    BECMG 1806/1809 24010KT BKN014=
ZCZC
FT171100 EHBK CCA MAASTRICHT/MAASTRICHT-AACHEN   NLD   114 m.
TAF COR EHBK 171130Z 1712/1818 27005KT 4000 BR BKN004
    BECMG 1712/1714 8000 NSW SCT020
    PROB30 TEMPO 1712/1806 7000 -SHRA FEW015CB
    PROB40 1718/1812 7000 BKN008
    BECMG 1807/1810 24012KT=
ZCZC
FT171100 EHEH     EINDHOVEN/EINDHOVEN   NLD   22 m.
TAF EHEH 171105Z 1712/1818 27007KT 8000 SCT016 BKN035
    TEMPO 1712/1722 4500 -SHRA FEW012 FEW015CB BKN018
    BECMG 1803/1805 4000 BR BKN006
    BECMG 1808/1810 9999 NSW SCT020 SCT050
    BECMG 1811/1813 23010KT
    PROB40 TEMPO 1812/1818 4500 -SHRA FEW012 FEW01CB BKN025=
ZCZC
FC171300 EHKD RRA DE KOOY/DE KOOY   NLD   1 m.
TAF EHKD 171301Z 1714/1802 29005KT 9999 SCT018 SCT040
    PROB30 TEMPO 2714/2716 SCT012=
ZCZC
FC171300 EHLW RRB LEEUWARDEN/LEEUWARDEN   NLD   1 m.
TAF EHLW 171301Z 1714/1802 31009KT 9999 FEW020 SCT090
    PROB30 TEMPO 1714/1716 SCT012=
ZCZC
FC171300 EHVK RRC VOLKEL/VOLKEL   NLD   21 m.
TAF EHVK 171256Z 1713/1801 28007KT 8000 SCT018 BKN040
    TEMPO 1713/1721 4500 -SHRA SCT009 FEW015CB BKN022=
Bron: KNMI website
Laatste update op 17-01-2021 om 16:01
ZCZC
SA171425 EHKD     DE KOOY/DE KOOY   NLD   1 m.
METAR EHKD 171425Z AUTO 31009KT 280V350 9999 FEW011 07/05 Q1019
BLU TEMPO SCT012=
ZCZC
SA171425 EHFD     F3-FB-1   NLD   50 m.
METAR EHFD 171425Z AUTO /////KT 9999 // NSC 07/04 Q1017 RE//=
ZCZC
SA171425 EHAM     AMSTERDAM/SCHIPHOL   NLD   -3 m.
METAR EHAM 171425Z 30013KT 9999 VCSH FEW013 FEW017TCU SCT040 07/05
Q1019 NOSIG=
ZCZC
SA171425 EHVL     VLIELAND   NLD   10 m.
METAR EHVL 171425Z AUTO 32016KT 8000 BR FEW009 07/05 Q1018 BLU=
ZCZC
SA171425 EHJR     K13-A   NLD   37 m.
METAR EHJR 171425Z AUTO 31020KT //// // ///////// 07/04 Q1020 RE//
W08/H15=
ZCZC
SA171425 EHLE     LELYSTAD/LELYSTAD   NLD   -3 m.
METAR EHLE 171425Z AUTO 30006KT 270V330 9999 FEW026 BKN030 OVC034
06/04 Q1018 NOSIG=
ZCZC
SA171425 EHLW     LEEUWARDEN/LEEUWARDEN   NLD   1 m.
METAR EHLW 171425Z AUTO 31010KT 280V340 9999 SCT033 07/05 Q1018 BLU=
ZCZC
SA171425 EHDL     ARNHEM/DEELEN   NLD   48 m.
METAR EHDL 171425Z AUTO 29005KT 220V010 6000 -RA SCT011 BKN013 OVC016
06/05 Q1018 GRN=
ZCZC
SA171425 EHGG     GRONINGEN/EELDE   NLD   5 m.
METAR EHGG 171425Z AUTO 27005KT 3400 -RA SCT022 BKN032 OVC037 04/04
Q1017 BECMG 6000 NSW=
ZCZC
SA171425 EHSC     LICHTEILAND GOEREE   NLD   22 m.
METAR EHSC 171425Z AUTO 32023KT 9999 ///////// 07/04 Q1021 W07/H18=
ZCZC
SA171425 EHSA     EURO PLATFORM   NLD   19 m.
METAR EHSA 171425Z AUTO 30023KT 9999 ///////// 07/04 Q1021 W06/H20=
ZCZC
SA171425 EHWO     WOENSDRECHT/WOENSDRECHT   NLD   19 m.
METAR EHWO 171425Z AUTO 28008KT 230V300 9999 FEW013 BKN016 OVC037
06/05 Q1021 WHT=
ZCZC
SA171425 EHRD     ROTTERDAM/THE HAGUE AIRPORT   NLD   -5 m.
METAR EHRD 171425Z AUTO 31010KT 270V360 9999 FEW013 SCT015 BKN040
07/05 Q1020 NOSIG=
ZCZC
SA171425 EHGR     GILZE-RIJEN/GILZE-RIJEN   NLD   14 m.
METAR EHGR 171425Z AUTO 30009KT 9999 FEW054 06/04 Q1020 BLU=
ZCZC
SA171425 EHEH     EINDHOVEN/EINDHOVEN   NLD   22 m.
METAR EHEH 171425Z AUTO 28008KT 230V330 9999 SCT017 BKN024 OVC030
07/05 Q1020
WHT NOSIG=
ZCZC
SA171425 EHVK     VOLKEL/VOLKEL   NLD   21 m.
METAR EHVK 171425Z AUTO 28007KT 250V340 9999 FEW016 SCT022 BKN027
07/04 Q1019 WHT=
ZCZC
SA171425 EHBK     MAASTRICHT/MAASTRICHT-AACHEN   NLD   114 m.
METAR EHBK 171425Z AUTO 28005KT 240V330 9999 FEW008 BKN015 OVC019
05/04 Q1020 TEMPO BKN012=
ZCZC
SA171425 EHFZ     F16-A   NLD   43 m.
METAR EHFZ 171425Z NIL=
ZCZC
SA171425 EHKV     K14-FA-1C   NLD   41 m.
METAR EHKV 171425Z AUTO 33016KT 290V350 9999 FEW016 07/04 Q1019=
ZCZC
SA171425 EHMG     L9-FF-1   NLD   44 m.
METAR EHMG 171425Z AUTO 31022KT 9999 FEW009 07/05 Q1018=
ZCZC
SA171425 EHMA     AWG-1   NLD   40 m.
METAR EHMA 171425Z AUTO 31019KT 9999 FEW035 07/06 Q1017=
ZCZC
SA171425 EHDV     D15-FA-1   NLD   42 m.
METAR EHDV 171425Z AUTO 29017KT 9999 NSC 07/05 Q1018=
ZCZC
SA171425 EHAK     A12-CPP   NLD   48 m.
METAR EHAK 171425Z AUTO 33015KT 9999 NCD 07/03 Q1017=
ZCZC
SA171425 EHQE     HOORN-A   NLD   50 m.
METAR EHQE 171425Z AUTO 29019KT 9999 FEW011 SCT022 07/04 Q1019=
ZCZC
SA171425 EHJA     J6-A   NLD   45 m.
METAR EHJA 171425Z AUTO 31018KT 9999 FEW017/// 07/03 Q1019=
ZCZC
SA171425 EHPG     P11-B   NLD   41 m.
METAR EHPG 171425Z AUTO 30015KT 260V340 9999 FEW011 SCT015 BKN028
07/04 Q1020=
ZCZC
SA171425 EHHW     BUITENGAATS/BG-OHVS2      42 m.
METAR EHHW 171425Z AUTO 34012KT 9999 FEW012/// SCT015/// BKN035///
08/05 Q1016=
ZCZC
SA171425 EHFS     VLISSINGEN AWS   NLD   8 m.
METAR EHFS 171425Z AUTO 29010KT 260V330 9999 FEW015/// SCT026///
OVC030/// 07/04 Q1021=
ZCZC
SA171425 EHSG     BSA   NLD   43 m.
METAR EHSG 171425Z AUTO 30017KT //// // SCT013/// BKN016/// BKN019///
07/03 Q1022 RE//=